createdAt,value
2019-04-28T00:00:03.059Z,94.7
2019-04-28T00:01:03.754Z,95.2
2019-04-28T00:02:02.868Z,96.1
2019-04-28T00:03:03.861Z,94.9
2019-04-28T00:04:03.719Z,96.6
2019-04-28T00:05:03.747Z,94.5
2019-04-28T00:06:03.371Z,94.9
2019-04-28T00:07:03.597Z,95.2
2019-04-28T00:08:03.532Z,95.6
2019-04-28T00:09:03.495Z,94.2
2019-04-28T00:10:03.324Z,96.8
2019-04-28T00:11:03.108Z,94.9
2019-04-28T00:12:03.103Z,96.6
2019-04-28T00:13:03.443Z,95.2
2019-04-28T00:14:03.227Z,94.2
2019-04-28T00:15:03.473Z,95.6
2019-04-28T00:16:03.287Z,94.2
2019-04-28T00:17:03.302Z,94.5
2019-04-28T00:18:04.410Z,95.2
2019-04-28T00:19:03.311Z,95.2
2019-04-28T00:20:03.035Z,96.1
2019-04-28T00:21:03.104Z,95.6
2019-04-28T00:22:03.149Z,95.4
2019-04-28T00:23:07.262Z,96.1
2019-04-28T00:24:02.792Z,95.4
2019-04-28T00:25:02.878Z,95.9
2019-04-28T00:26:03.111Z,94.2
2019-04-28T00:27:03.761Z,95.4
2019-04-28T00:28:03.886Z,95.2
2019-04-28T00:29:03.846Z,96.6
2019-04-28T00:30:03.859Z,95.2
2019-04-28T00:31:03.480Z,98.2
2019-04-28T00:32:03.742Z,97
2019-04-28T00:33:03.620Z,97
2019-04-28T00:34:03.286Z,96.6
2019-04-28T00:35:03.703Z,97
2019-04-28T00:36:03.537Z,95.6
2019-04-28T00:37:03.595Z,96.8
2019-04-28T00:38:03.296Z,97.7
2019-04-28T00:39:03.181Z,96.1
2019-04-28T00:40:03.605Z,96.3
2019-04-28T00:41:03.546Z,96.1
2019-04-28T00:42:03.609Z,97
2019-04-28T00:43:03.135Z,97.5
2019-04-28T00:44:03.251Z,96.8
2019-04-28T00:45:03.228Z,96.3
2019-04-28T00:46:03.001Z,94.9
2019-04-28T00:47:03.083Z,95.2
2019-04-28T00:48:03.765Z,94.9
2019-04-28T00:49:03.801Z,95.4
2019-04-28T00:50:03.825Z,95.9
2019-04-28T00:51:03.852Z,95.9
2019-04-28T00:52:03.747Z,95.2
2019-04-28T00:53:03.908Z,94.9
2019-04-28T00:54:03.465Z,94.9
2019-04-28T00:55:03.516Z,94.9
2019-04-28T00:56:03.635Z,94.7
2019-04-28T00:57:03.526Z,94.5
2019-04-28T00:58:03.267Z,97
2019-04-28T00:59:03.412Z,97.3
2019-04-28T01:00:03.271Z,96.6
2019-04-28T01:01:03.286Z,97.7
2019-04-28T01:02:04.010Z,97.7
2019-04-28T01:03:03.328Z,97.7
2019-04-28T01:04:03.753Z,98.4
2019-04-28T01:05:03.691Z,98.4
2019-04-28T01:06:03.179Z,98.4
2019-04-28T01:07:03.045Z,98.4
2019-04-28T01:08:03.018Z,98.4
2019-04-28T01:09:04.015Z,98.4
2019-04-28T01:10:03.375Z,98.4
2019-04-28T01:11:03.183Z,98.4
2019-04-28T01:12:02.712Z,98.9
2019-04-28T01:13:03.268Z,98.9
2019-04-28T01:14:03.299Z,98.9
2019-04-28T01:15:05.117Z,98.9
2019-04-28T01:16:03.296Z,98.9
2019-04-28T01:17:03.242Z,98.9
2019-04-28T01:18:03.187Z,98.9
2019-04-28T01:19:03.370Z,98.9
2019-04-28T01:20:03.614Z,89.3
2019-04-28T01:21:03.338Z,89.6
2019-04-28T01:22:03.517Z,89.1
2019-04-28T01:23:03.377Z,89.6
2019-04-28T01:24:03.590Z,91.9
2019-04-28T01:25:03.212Z,91
2019-04-28T01:26:03.377Z,91
2019-04-28T01:27:03.424Z,90.5
2019-04-28T01:28:03.231Z,89.8
2019-04-28T01:29:03.155Z,87.7
2019-04-28T01:30:11.610Z,87.5
2019-04-28T01:31:03.228Z,86.5
2019-04-28T01:32:03.875Z,85.6
2019-04-28T01:33:02.943Z,87.2
2019-04-28T01:34:03.875Z,88.9
2019-04-28T01:35:03.254Z,90.3
2019-04-28T01:36:03.924Z,90.3
2019-04-28T01:37:03.908Z,91
2019-04-28T01:38:03.901Z,89.6
2019-04-28T01:39:03.897Z,89.3
2019-04-28T01:40:03.716Z,89.3
2019-04-28T01:41:03.455Z,89.3
2019-04-28T01:42:03.699Z,89.6
2019-04-28T01:43:03.274Z,89.3
2019-04-28T01:44:03.517Z,90.3
2019-04-28T01:45:03.367Z,91
2019-04-28T01:46:03.544Z,93.1
2019-04-28T01:47:03.331Z,92.1
2019-04-28T01:48:03.892Z,91.2
2019-04-28T01:49:03.226Z,90
2019-04-28T01:50:03.522Z,91
2019-04-28T01:51:03.515Z,91.7
2019-04-28T01:52:03.195Z,92.4
2019-04-28T01:53:03.573Z,93.3
2019-04-28T01:54:03.111Z,93.8
2019-04-28T01:55:03.393Z,93.5
2019-04-28T01:56:02.977Z,92.6
2019-04-28T01:57:03.313Z,92.6
2019-04-28T01:58:02.944Z,91.2
2019-04-28T01:59:03.604Z,90.7
2019-04-28T02:00:03.115Z,92.1
2019-04-28T02:01:02.944Z,91.9
2019-04-28T02:02:03.111Z,92.8
2019-04-28T02:03:02.950Z,93.1
2019-04-28T02:04:03.154Z,91.4
2019-04-28T02:05:03.126Z,89.6
2019-04-28T02:06:02.990Z,89.3
2019-04-28T02:07:03.634Z,87.7
2019-04-28T02:08:02.869Z,87.2
2019-04-28T02:09:03.930Z,86.3
2019-04-28T02:10:03.624Z,85.8
2019-04-28T02:11:03.805Z,84.4
2019-04-28T02:12:03.483Z,86.1
2019-04-28T02:13:03.407Z,86.3
2019-04-28T02:14:03.061Z,89.3
2019-04-28T02:15:03.541Z,90
2019-04-28T02:16:03.635Z,91.4
2019-04-28T02:17:03.487Z,94
2019-04-28T02:18:03.302Z,95.2
2019-04-28T02:19:03.430Z,95.6
2019-04-28T02:20:03.478Z,95.6
2019-04-28T02:21:03.184Z,94.5
2019-04-28T02:22:03.703Z,95.4
2019-04-28T02:23:03.004Z,95.4
2019-04-28T02:24:02.987Z,93.8
2019-04-28T02:25:03.194Z,94.2
2019-04-28T02:26:03.350Z,95.2
2019-04-28T02:27:03.192Z,94.2
2019-04-28T02:28:03.973Z,94.2
2019-04-28T02:29:03.011Z,94
2019-04-28T02:30:03.890Z,94
2019-04-28T02:31:03.810Z,94
2019-04-28T02:32:03.961Z,94.5
2019-04-28T02:33:02.954Z,92.8
2019-04-28T02:34:03.419Z,92.8
2019-04-28T02:35:03.947Z,90.3
2019-04-28T02:36:03.617Z,90.5
2019-04-28T02:37:03.685Z,90.5
2019-04-28T02:38:03.506Z,91
2019-04-28T02:39:02.953Z,91
2019-04-28T02:40:04.126Z,91.2
2019-04-28T02:41:03.714Z,91.2
2019-04-28T02:42:03.641Z,91.4
2019-04-28T02:43:03.486Z,90.7
2019-04-28T02:44:03.728Z,90.7
2019-04-28T02:45:03.745Z,90.7
2019-04-28T02:46:03.630Z,88.6
2019-04-28T02:47:03.475Z,88.6
2019-04-28T02:48:03.687Z,89.8
2019-04-28T02:49:03.369Z,90.3
2019-04-28T02:50:03.279Z,88.9
2019-04-28T02:51:03.743Z,87.5
2019-04-28T02:52:03.474Z,86.5
2019-04-28T02:53:03.397Z,86.8
2019-04-28T02:54:03.320Z,89.1
2019-04-28T02:55:04.035Z,88.9
2019-04-28T02:56:03.137Z,89.1
2019-04-28T02:57:03.141Z,89.3
2019-04-28T02:58:03.125Z,89.6
2019-04-28T02:59:02.941Z,89.3
2019-04-28T03:00:03.905Z,87.7
2019-04-28T03:01:27.076Z,87.7
2019-04-28T03:03:03.823Z,85.8
2019-04-28T03:04:03.873Z,86.3
2019-04-28T03:05:03.776Z,87.5
2019-04-28T03:06:03.393Z,86.8
2019-04-28T03:07:03.714Z,87.2
2019-04-28T03:08:03.649Z,87.5
2019-04-28T03:09:03.652Z,87
2019-04-28T03:10:04.336Z,86.8
2019-04-28T03:11:03.591Z,87.5
2019-04-28T03:12:03.676Z,87.5
2019-04-28T03:13:03.291Z,89.3
2019-04-28T03:14:03.319Z,87.9
2019-04-28T03:15:03.446Z,88.4
2019-04-28T03:16:03.185Z,89.6
2019-04-28T03:17:03.415Z,88.2
2019-04-28T03:18:02.894Z,89.1
2019-04-28T03:19:03.050Z,90
2019-04-28T03:20:03.124Z,90.5
2019-04-28T03:21:04.882Z,90.5
2019-04-28T03:22:03.700Z,90.7
2019-04-28T03:23:03.834Z,91.4
2019-04-28T03:24:03.894Z,91
2019-04-28T03:25:03.895Z,91.4
2019-04-28T03:26:03.065Z,90.7
2019-04-28T03:27:03.981Z,91.9
2019-04-28T03:28:04.016Z,92.8
2019-04-28T03:29:03.576Z,92.8
2019-04-28T03:30:04.004Z,92.6
2019-04-28T03:32:43.473Z,93.1
2019-04-28T03:33:05.870Z,93.1
2019-04-28T03:34:05.336Z,92.6
2019-04-28T03:35:04.640Z,93.1
2019-04-28T03:36:16.189Z,93.8
2019-04-28T03:38:03.322Z,94.2
2019-04-28T03:39:03.282Z,96.6
2019-04-28T03:40:03.106Z,96.1
2019-04-28T03:41:03.217Z,96.1
2019-04-28T03:42:03.126Z,96.1
2019-04-28T03:43:04.051Z,96.8
2019-04-28T03:44:02.989Z,96.3
2019-04-28T03:45:03.851Z,96.6
2019-04-28T03:46:04.205Z,97.3
2019-04-28T03:47:03.772Z,97.7
2019-04-28T03:48:03.847Z,96.1
2019-04-28T03:49:03.805Z,96.1
2019-04-28T03:50:03.151Z,96.1
2019-04-28T03:51:03.764Z,95.4
2019-04-28T03:52:03.633Z,95.9
2019-04-28T03:53:03.919Z,96.6
2019-04-28T03:54:03.465Z,94.2
2019-04-28T03:55:03.666Z,94.7
2019-04-28T03:56:03.748Z,95.6
2019-04-28T03:57:03.338Z,94
2019-04-28T03:58:03.398Z,93.5
2019-04-28T03:59:03.382Z,93.1
2019-04-28T04:00:03.555Z,94.2
2019-04-28T04:01:03.690Z,94.9
2019-04-28T04:02:03.806Z,94.9
2019-04-28T04:03:03.299Z,97.3
2019-04-28T04:04:04.010Z,97.5
2019-04-28T04:05:04.549Z,97.5
2019-04-28T04:06:03.344Z,98
2019-04-28T04:07:03.226Z,97.3
2019-04-28T04:08:03.049Z,97.3
2019-04-28T04:09:03.199Z,97.7
2019-04-28T04:10:03.339Z,97.3
2019-04-28T04:11:03.646Z,96.1
2019-04-28T04:12:03.965Z,96.3
2019-04-28T04:13:02.822Z,95.4
2019-04-28T04:14:02.862Z,94.9
2019-04-28T04:15:04.559Z,95.6
2019-04-28T04:16:03.702Z,94.5
2019-04-28T04:17:03.137Z,94.9
2019-04-28T04:18:03.949Z,94.9
2019-04-28T04:19:03.947Z,94.7
2019-04-28T04:20:03.770Z,95.4
2019-04-28T04:21:03.669Z,95.4
2019-04-28T04:22:03.385Z,94.9
2019-04-28T04:23:03.411Z,94.9
2019-04-28T04:24:03.599Z,94.9
2019-04-28T04:25:03.606Z,94.5
2019-04-28T04:26:03.527Z,93.1
2019-04-28T04:27:03.335Z,94
2019-04-28T04:28:04.337Z,94.5
2019-04-28T04:29:03.609Z,94.9
2019-04-28T04:30:03.554Z,95.9
2019-04-28T04:31:03.734Z,95.2
2019-04-28T04:32:27.476Z,96.1
2019-04-28T04:34:03.825Z,96.3
2019-04-28T04:35:03.305Z,96.6
2019-04-28T04:36:03.032Z,96.8
2019-04-28T04:37:02.937Z,95.4
2019-04-28T04:38:03.087Z,94.9
2019-04-28T04:39:03.892Z,92.8
2019-04-28T04:40:02.884Z,92.6
2019-04-28T04:41:03.091Z,93.1
2019-04-28T04:42:03.887Z,92.6
2019-04-28T04:43:04.016Z,93.1
2019-04-28T04:44:03.779Z,92.4
2019-04-28T04:45:03.067Z,92.1
2019-04-28T04:46:03.732Z,91.7
2019-04-28T04:47:03.654Z,92.6
2019-04-28T04:48:03.117Z,92.8
2019-04-28T04:49:03.579Z,92.4
2019-04-28T04:50:03.921Z,92.4
2019-04-28T04:51:03.500Z,94.2
2019-04-28T04:52:03.790Z,93.8
2019-04-28T04:53:03.326Z,93.1
2019-04-28T04:54:03.542Z,92.6
2019-04-28T04:55:03.607Z,94
2019-04-28T04:56:03.752Z,94
2019-04-28T04:57:03.804Z,94.5
2019-04-28T04:58:03.586Z,94
2019-04-28T04:59:03.806Z,94.5
2019-04-28T05:00:03.227Z,94.2
2019-04-28T05:01:03.698Z,94.9
2019-04-28T05:02:03.336Z,96.1
2019-04-28T05:03:03.782Z,94.7
2019-04-28T05:04:03.128Z,94.5
2019-04-28T05:05:03.543Z,93.8
2019-04-28T05:06:03.222Z,93.1
2019-04-28T05:07:03.138Z,94.5
2019-04-28T05:08:03.101Z,93.1
2019-04-28T05:09:03.217Z,93.8
2019-04-28T05:10:03.435Z,92.8
2019-04-28T05:11:03.005Z,92.8
2019-04-28T05:12:02.991Z,92.1
2019-04-28T05:13:03.884Z,92.1
2019-04-28T05:14:03.076Z,91.7
2019-04-28T05:15:04.042Z,91.7
2019-04-28T05:16:02.898Z,91.7
2019-04-28T05:17:03.414Z,93.5
2019-04-28T05:18:02.758Z,92.6
2019-04-28T05:19:03.758Z,91.4
2019-04-28T05:20:03.594Z,90.7
2019-04-28T05:21:03.348Z,90.7
2019-04-28T05:22:03.335Z,92.8
2019-04-28T05:23:04.192Z,92.1
2019-04-28T05:24:03.273Z,92.1
2019-04-28T05:25:03.780Z,91.7
2019-04-28T05:26:11.575Z,92.1
2019-04-28T05:27:03.468Z,90.5
2019-04-28T05:28:03.380Z,90
2019-04-28T05:29:03.094Z,90.3
2019-04-28T05:30:05.722Z,89.3
2019-04-28T05:31:03.066Z,89.8
2019-04-28T05:32:03.991Z,87.9
2019-04-28T05:33:03.303Z,88.2
2019-04-28T05:34:11.729Z,89.3
2019-04-28T05:35:03.274Z,89.6
2019-04-28T05:36:03.462Z,89.3
2019-04-28T05:37:02.893Z,91
2019-04-28T05:38:02.974Z,92.1
2019-04-28T05:39:03.851Z,92.6
2019-04-28T05:40:03.281Z,93.3
2019-04-28T05:41:03.158Z,92.8
2019-04-28T05:42:03.850Z,92.8
2019-04-28T05:43:03.571Z,92.6
2019-04-28T05:44:03.607Z,94.5
2019-04-28T05:45:03.669Z,93.8
2019-04-28T05:46:03.079Z,93.3
2019-04-28T05:47:03.892Z,94
2019-04-28T05:48:03.409Z,93.8
2019-04-28T05:49:03.707Z,94.7
2019-04-28T05:50:03.492Z,95.2
2019-04-28T05:51:03.074Z,94.5
2019-04-28T05:52:03.451Z,94.2
2019-04-28T05:53:03.072Z,93.5
2019-04-28T05:54:03.190Z,93.8
2019-04-28T05:55:03.110Z,92.1
2019-04-28T05:56:03.335Z,92.1
2019-04-28T05:57:02.934Z,90.5
2019-04-28T05:58:02.999Z,91
2019-04-28T05:59:02.889Z,91.7
2019-04-28T06:00:04.001Z,91.9
2019-04-28T06:01:03.765Z,91.7
2019-04-28T06:02:02.786Z,89.8
2019-04-28T06:03:03.872Z,89.3
2019-04-28T06:04:02.978Z,90
2019-04-28T06:05:04.044Z,91
2019-04-28T06:06:03.056Z,92.1
2019-04-28T06:07:03.500Z,91.2
2019-04-28T06:08:03.593Z,92.6
2019-04-28T06:09:03.770Z,91
2019-04-28T06:10:03.499Z,93.1
2019-04-28T06:11:03.602Z,94
2019-04-28T06:12:03.534Z,94.5
2019-04-28T06:13:03.716Z,95.2
2019-04-28T06:14:03.476Z,95.6
2019-04-28T06:15:03.429Z,95.9
2019-04-28T06:16:03.411Z,97.3
2019-04-28T06:17:04.510Z,94.5
2019-04-28T06:18:03.178Z,94.9
2019-04-28T06:19:03.155Z,95.6
2019-04-28T06:20:03.485Z,96.8
2019-04-28T06:21:03.358Z,97.3
2019-04-28T06:22:02.979Z,95.4
2019-04-28T06:23:03.474Z,95.9
2019-04-28T06:24:03.315Z,96.3
2019-04-28T06:25:03.472Z,98.4
2019-04-28T06:26:02.994Z,98.9
2019-04-28T06:27:02.886Z,100.1
2019-04-28T06:28:03.136Z,100.1
2019-04-28T06:29:03.610Z,98.9
2019-04-28T06:30:03.978Z,99.6
2019-04-28T06:31:03.815Z,100.3
2019-04-28T06:32:02.936Z,100.3
2019-04-28T06:33:08.671Z,99.8
2019-04-28T06:34:03.401Z,98.9
2019-04-28T06:35:03.810Z,98.9
2019-04-28T06:36:03.504Z,99.1
2019-04-28T06:37:03.639Z,98.4
2019-04-28T06:38:03.621Z,96.8
2019-04-28T06:39:03.268Z,96.1
2019-04-28T06:40:03.642Z,95.4
2019-04-28T06:41:03.660Z,96.8
2019-04-28T06:42:03.221Z,97
2019-04-28T06:43:03.319Z,97.3
2019-04-28T06:44:03.321Z,96.3
2019-04-28T06:45:03.013Z,97
2019-04-28T06:46:03.509Z,97.7
2019-04-28T06:47:03.186Z,96.1
2019-04-28T06:48:03.217Z,96.6
2019-04-28T06:49:03.157Z,96.3
2019-04-28T06:50:03.083Z,96.1
2019-04-28T06:51:03.131Z,95.4
2019-04-28T06:52:03.118Z,96.8
2019-04-28T06:53:03.320Z,98.4
2019-04-28T06:54:03.120Z,99.4
2019-04-28T06:55:03.271Z,99.6
2019-04-28T06:56:02.930Z,101
2019-04-28T06:57:04.028Z,102.4
2019-04-28T06:58:03.785Z,102.9
2019-04-28T06:59:02.928Z,102.6
2019-04-28T07:00:03.791Z,103.1
2019-04-28T07:01:03.736Z,102.6
2019-04-28T07:02:03.763Z,103.6
2019-04-28T07:03:03.686Z,104
2019-04-28T07:04:03.616Z,103.1
2019-04-28T07:05:03.832Z,101.9
2019-04-28T07:06:03.311Z,101.2
2019-04-28T07:07:03.310Z,102.6
2019-04-28T07:08:03.481Z,101.5
2019-04-28T07:09:03.579Z,102.2
2019-04-28T07:10:03.789Z,101.5
2019-04-28T07:11:03.043Z,100.8
2019-04-28T07:12:03.371Z,102.4
2019-04-28T07:13:03.334Z,103.3
2019-04-28T07:14:03.225Z,102.6
2019-04-28T07:15:03.456Z,103.1
2019-04-28T07:16:03.144Z,103.1
2019-04-28T07:17:03.296Z,105
2019-04-28T07:18:02.908Z,105.9
2019-04-28T07:19:03.192Z,105.4
2019-04-28T07:20:02.853Z,106.4
2019-04-28T07:21:02.946Z,107.3
2019-04-28T07:22:02.978Z,106.4
2019-04-28T07:23:04.096Z,104.5
2019-04-28T07:24:03.650Z,104
2019-04-28T07:25:03.895Z,101
2019-04-28T07:26:03.883Z,100.8
2019-04-28T07:27:03.768Z,100.8
2019-04-28T07:28:03.010Z,100.5
2019-04-28T07:29:03.931Z,101.7
2019-04-28T07:30:04.065Z,102.2
2019-04-28T07:31:03.706Z,102.2
2019-04-28T07:32:03.192Z,103.6
2019-04-28T07:33:03.970Z,104
2019-04-28T07:34:03.296Z,104
2019-04-28T07:35:03.641Z,103.3
2019-04-28T07:36:03.600Z,103.3
2019-04-28T07:37:03.424Z,103.3
2019-04-28T07:38:03.072Z,105
2019-04-28T07:39:03.414Z,105.7
2019-04-28T07:40:03.789Z,106.6
2019-04-28T07:41:03.416Z,105.2
2019-04-28T07:42:03.227Z,104
2019-04-28T07:43:03.101Z,103.6
2019-04-28T07:44:03.442Z,103.1
2019-04-28T07:45:03.173Z,103.1
2019-04-28T07:46:03.166Z,103.3
2019-04-28T07:47:03.131Z,102.6
2019-04-28T07:48:03.127Z,102.9
2019-04-28T07:49:02.952Z,103.3
2019-04-28T07:50:03.000Z,104.7
2019-04-28T07:51:03.094Z,104.7
2019-04-28T07:52:03.818Z,104
2019-04-28T07:53:04.008Z,103.6
2019-04-28T07:54:05.167Z,102.9
2019-04-28T07:55:03.600Z,104
2019-04-28T07:56:03.685Z,103.1
2019-04-28T07:57:03.619Z,102.9
2019-04-28T07:58:03.512Z,102.9
2019-04-28T07:59:03.591Z,101.2
2019-04-28T08:00:03.630Z,100.1
2019-04-28T08:01:03.458Z,100.1
2019-04-28T08:02:03.410Z,100.1
2019-04-28T08:03:03.654Z,101.2
2019-04-28T08:04:03.526Z,101
2019-04-28T08:05:03.533Z,101.9
2019-04-28T08:06:03.474Z,102.2
2019-04-28T08:07:03.165Z,102.2
2019-04-28T08:08:03.726Z,102.6
2019-04-28T08:09:03.551Z,102.9
2019-04-28T08:10:03.515Z,102.9
2019-04-28T08:11:03.571Z,102.9
2019-04-28T08:12:03.404Z,101
2019-04-28T08:13:03.292Z,99.4
2019-04-28T08:14:03.552Z,99.4
2019-04-28T08:15:03.092Z,101
2019-04-28T08:16:03.234Z,98.4
2019-04-28T08:17:03.130Z,97.5
2019-04-28T08:18:02.880Z,96.6
2019-04-28T08:19:02.697Z,97.5
2019-04-28T08:20:06.020Z,96.1
2019-04-28T08:21:03.108Z,95.4
2019-04-28T08:22:03.979Z,96.6
2019-04-28T08:23:03.793Z,97.7
2019-04-28T08:24:03.825Z,98.4
2019-04-28T08:25:03.879Z,101
2019-04-28T08:26:03.454Z,102.4
2019-04-28T08:27:03.737Z,101.5
2019-04-28T08:28:03.637Z,102.4
2019-04-28T08:29:04.125Z,102.2
2019-04-28T08:30:03.738Z,102.2
2019-04-28T08:31:03.813Z,101
2019-04-28T08:32:03.902Z,101
2019-04-28T08:33:03.746Z,100.1
2019-04-28T08:34:03.386Z,99.8
2019-04-28T08:35:03.613Z,100.1
2019-04-28T08:36:03.361Z,100.1
2019-04-28T08:37:03.430Z,100.3
2019-04-28T08:38:03.343Z,99.1
2019-04-28T08:39:03.121Z,99.1
2019-04-28T08:40:03.648Z,98
2019-04-28T08:41:03.499Z,97.7
2019-04-28T08:42:03.154Z,98.7
2019-04-28T08:43:03.292Z,99.1
2019-04-28T08:44:03.024Z,99.8
2019-04-28T08:45:03.344Z,99.1
2019-04-28T08:46:03.010Z,99.8
2019-04-28T08:47:03.014Z,100.8
2019-04-28T08:48:03.094Z,100.1
2019-04-28T08:49:03.366Z,99.4
2019-04-28T08:50:03.045Z,97.7
2019-04-28T08:51:03.141Z,97.7
2019-04-28T08:52:03.132Z,97.7
2019-04-28T08:53:03.634Z,96.1
2019-04-28T08:54:03.900Z,95.6
2019-04-28T08:55:04.128Z,95.2
2019-04-28T08:56:03.420Z,95.4
2019-04-28T08:57:03.497Z,96.3
2019-04-28T08:58:03.829Z,97.7
2019-04-28T08:59:05.326Z,98.9
2019-04-28T09:00:03.576Z,98.9
2019-04-28T09:01:03.340Z,99.8
2019-04-28T09:02:03.640Z,99.1
2019-04-28T09:03:03.686Z,98
2019-04-28T09:04:16.104Z,99.6
2019-04-28T09:06:03.480Z,98.9
2019-04-28T09:07:03.544Z,98
2019-04-28T09:08:03.022Z,97.7
2019-04-28T09:09:03.335Z,99.1
2019-04-28T09:10:03.390Z,98.4
2019-04-28T09:11:03.005Z,98.9
2019-04-28T09:12:03.223Z,99.8
2019-04-28T09:13:03.330Z,99.8
2019-04-28T09:14:02.985Z,100.1
2019-04-28T09:15:04.129Z,99.1
2019-04-28T09:16:03.194Z,99.8
2019-04-28T09:17:02.929Z,100.5
2019-04-28T09:18:03.716Z,100.8
2019-04-28T09:19:02.761Z,100.5
2019-04-28T09:20:03.238Z,100.1
2019-04-28T09:21:03.888Z,98.9
2019-04-28T09:22:03.766Z,98
2019-04-28T09:23:03.906Z,97
2019-04-28T09:24:03.818Z,97.5
2019-04-28T09:25:03.685Z,96.1
2019-04-28T09:26:03.041Z,94.5
2019-04-28T09:27:02.766Z,94.7
2019-04-28T09:28:03.653Z,94.5
2019-04-28T09:29:03.795Z,93.8
2019-04-28T09:30:03.854Z,92.6
2019-04-28T09:31:03.687Z,92.6
2019-04-28T09:32:03.846Z,92.4
2019-04-28T09:33:03.676Z,93.3
2019-04-28T09:34:03.593Z,93.8
2019-04-28T09:35:03.587Z,94.2
2019-04-28T09:36:03.657Z,94
2019-04-28T09:37:03.608Z,94
2019-04-28T09:38:03.474Z,94.7
2019-04-28T09:39:03.289Z,95.9
2019-04-28T09:40:03.534Z,97.5
2019-04-28T09:41:03.555Z,97
2019-04-28T09:42:03.237Z,97
2019-04-28T09:43:03.330Z,96.8
2019-04-28T09:44:03.709Z,96.1
2019-04-28T09:45:03.038Z,97.3
2019-04-28T09:46:03.342Z,95.6
2019-04-28T09:47:03.460Z,95.2
2019-04-28T09:48:03.143Z,97.3
2019-04-28T09:49:02.839Z,97
2019-04-28T09:50:02.985Z,98
2019-04-28T09:51:03.042Z,98.2
2019-04-28T09:52:04.030Z,97.7
2019-04-28T09:53:03.682Z,98.7
2019-04-28T09:54:03.952Z,98.7
2019-04-28T09:55:04.163Z,98.2
2019-04-28T09:56:03.720Z,98
2019-04-28T09:57:04.112Z,97.5
2019-04-28T09:58:03.854Z,96.8
2019-04-28T09:59:03.788Z,95.9
2019-04-28T10:00:03.724Z,96.3
2019-04-28T10:01:03.573Z,95.2
2019-04-28T10:02:03.644Z,95.2
2019-04-28T10:03:03.339Z,94.9
2019-04-28T10:04:03.643Z,94
2019-04-28T10:05:03.676Z,94.5
2019-04-28T10:06:03.394Z,94.2
2019-04-28T10:07:03.672Z,94.2
2019-04-28T10:08:03.492Z,94.5
2019-04-28T10:09:03.199Z,94
2019-04-28T10:10:03.570Z,94
2019-04-28T10:11:03.358Z,94.7
2019-04-28T10:12:02.991Z,93.8
2019-04-28T10:13:02.895Z,94
2019-04-28T10:14:03.006Z,94.2
2019-04-28T10:15:02.958Z,95.9
2019-04-28T10:16:02.973Z,95.4
2019-04-28T10:17:02.886Z,95.2
2019-04-28T10:18:02.871Z,95.6
2019-04-28T10:19:03.043Z,95.6
2019-04-28T10:20:03.896Z,95.4
2019-04-28T10:21:03.908Z,96.8
2019-04-28T10:22:03.851Z,97.7
2019-04-28T10:23:03.677Z,98.2
2019-04-28T10:24:03.892Z,97.5
2019-04-28T10:25:03.477Z,97.5
2019-04-28T10:26:03.830Z,98.2
2019-04-28T10:27:03.456Z,99.6
2019-04-28T10:28:03.743Z,98.7
2019-04-28T10:29:03.710Z,98.7
2019-04-28T10:30:03.800Z,97.5
2019-04-28T10:31:03.218Z,97.7
2019-04-28T10:32:03.413Z,98
2019-04-28T10:33:03.415Z,98.2
2019-04-28T10:34:03.472Z,97
2019-04-28T10:35:03.509Z,96.1
2019-04-28T10:36:03.161Z,95.6
2019-04-28T10:37:03.187Z,95.2
2019-04-28T10:38:03.220Z,95.6
2019-04-28T10:39:03.145Z,95.4
2019-04-28T10:40:03.249Z,95.9
2019-04-28T10:41:02.835Z,96.6
2019-04-28T10:42:03.117Z,96.3
2019-04-28T10:43:02.931Z,97.5
2019-04-28T10:44:03.830Z,98.9
2019-04-28T10:45:03.133Z,98.4
2019-04-28T10:46:03.134Z,98.7
2019-04-28T10:47:03.917Z,98.9
2019-04-28T10:48:03.672Z,97.3
2019-04-28T10:49:03.731Z,98.7
2019-04-28T10:50:04.085Z,98.2
2019-04-28T10:51:03.649Z,98
2019-04-28T10:52:02.946Z,98.9
2019-04-28T10:53:03.407Z,99.1
2019-04-28T10:54:03.220Z,100.5
2019-04-28T10:55:04.030Z,100.5
2019-04-28T10:56:03.551Z,100.5
2019-04-28T10:57:03.463Z,99.4
2019-04-28T10:58:03.448Z,98.4
2019-04-28T10:59:03.715Z,99.6
2019-04-28T11:00:03.745Z,99.4
2019-04-28T11:01:03.242Z,99.6
2019-04-28T11:02:03.073Z,99.8
2019-04-28T11:03:03.621Z,100.3
2019-04-28T11:04:03.116Z,99.8
2019-04-28T11:05:09.331Z,98.9
2019-04-28T11:06:03.160Z,98.4
2019-04-28T11:07:03.188Z,98
2019-04-28T11:08:03.042Z,98.2
2019-04-28T11:09:03.560Z,98
2019-04-28T11:10:03.290Z,98.7
2019-04-28T11:11:03.619Z,98.4
2019-04-28T11:12:03.365Z,98
2019-04-28T11:13:03.476Z,98
2019-04-28T11:14:03.193Z,98.4
2019-04-28T11:15:03.282Z,97.7
2019-04-28T11:16:03.119Z,97.5
2019-04-28T11:17:03.039Z,96.8
2019-04-28T11:18:03.238Z,96.6
2019-04-28T11:19:03.207Z,96.6
2019-04-28T11:20:03.160Z,98
2019-04-28T11:21:03.942Z,97
2019-04-28T11:22:03.187Z,96.1
2019-04-28T11:23:03.110Z,96.8
2019-04-28T11:24:03.703Z,95.6
2019-04-28T11:25:03.705Z,95.4
2019-04-28T11:26:03.455Z,96.1
2019-04-28T11:27:03.478Z,94.7
2019-04-28T11:28:03.602Z,95.2
2019-04-28T11:29:03.671Z,95.2
2019-04-28T11:30:03.867Z,96.6
2019-04-28T11:31:03.755Z,96.8
2019-04-28T11:32:03.299Z,96.1
2019-04-28T11:33:03.319Z,95.2
2019-04-28T11:34:03.323Z,98
2019-04-28T11:35:03.621Z,99.1
2019-04-28T11:36:03.193Z,99.1
2019-04-28T11:37:03.448Z,99.1
2019-04-28T11:38:03.283Z,99.1
2019-04-28T11:39:02.046Z,99.1
2019-04-28T11:40:03.237Z,98
2019-04-28T11:41:03.171Z,98
2019-04-28T11:42:03.185Z,97
2019-04-28T11:43:02.950Z,96.3
2019-04-28T11:44:03.031Z,95.6
2019-04-28T11:45:03.177Z,95.9
2019-04-28T11:46:03.272Z,96.3
2019-04-28T11:47:03.052Z,96.3
2019-04-28T11:48:03.094Z,96.6
2019-04-28T11:49:02.908Z,95.4
2019-04-28T11:50:03.947Z,95.4
2019-04-28T11:51:03.905Z,96.3
2019-04-28T11:52:03.971Z,94.7
2019-04-28T11:53:03.732Z,93.3
2019-04-28T11:54:03.697Z,93.8
2019-04-28T11:55:04.112Z,93.3
2019-04-28T11:56:03.628Z,92.8
2019-04-28T11:57:03.658Z,94
2019-04-28T11:58:03.788Z,94.5
2019-04-28T11:59:03.829Z,94
2019-04-28T12:00:03.468Z,94.7
2019-04-28T12:01:03.492Z,94.5
2019-04-28T12:02:03.379Z,96.3
2019-04-28T12:03:02.958Z,96.1
2019-04-28T12:04:03.335Z,96.1
2019-04-28T12:05:03.350Z,95.9
2019-04-28T12:06:03.229Z,96.3
2019-04-28T12:07:03.134Z,97.3
2019-04-28T12:08:03.385Z,96.8
2019-04-28T12:09:03.177Z,95.9
2019-04-28T12:10:06.820Z,96.1
2019-04-28T12:11:02.893Z,95.6
2019-04-28T12:12:03.264Z,95.6
2019-04-28T12:13:02.922Z,95.2
2019-04-28T12:14:03.041Z,96.1
2019-04-28T12:15:03.181Z,96.1
2019-04-28T12:16:04.062Z,97.7
2019-04-28T12:17:03.855Z,97.3
2019-04-28T12:18:02.795Z,97
2019-04-28T12:19:04.024Z,97.3
2019-04-28T12:20:03.704Z,96.8
2019-04-28T12:21:03.882Z,97.5
2019-04-28T12:22:03.390Z,98.7
2019-04-28T12:23:03.552Z,98
2019-04-28T12:24:03.521Z,98.7
2019-04-28T12:25:03.891Z,100.3
2019-04-28T12:26:03.423Z,99.4
2019-04-28T12:27:03.662Z,100.3
2019-04-28T12:28:03.458Z,100.3
2019-04-28T12:29:03.491Z,101.5
2019-04-28T12:30:03.645Z,101
2019-04-28T12:31:03.111Z,101
2019-04-28T12:32:03.098Z,101.5
2019-04-28T12:33:03.136Z,101
2019-04-28T12:34:03.124Z,99.1
2019-04-28T12:35:03.425Z,99.4
2019-04-28T12:36:03.017Z,99.1
2019-04-28T12:37:02.941Z,100.1
2019-04-28T12:38:03.869Z,100.1
2019-04-28T12:39:02.878Z,99.1
2019-04-28T12:40:02.960Z,99.6
2019-04-28T12:41:03.106Z,99.1
2019-04-28T12:42:03.065Z,99.8
2019-04-28T12:43:04.094Z,99.1
2019-04-28T12:44:03.466Z,98.7
2019-04-28T12:45:03.960Z,98.7
2019-04-28T12:46:03.796Z,99.1
2019-04-28T12:47:03.561Z,99.6
2019-04-28T12:48:03.504Z,99.4
2019-04-28T12:49:03.539Z,99.8
2019-04-28T12:50:03.468Z,100.1
2019-04-28T12:51:03.265Z,100.3
2019-04-28T12:52:03.682Z,101.2
2019-04-28T12:53:03.569Z,103.3
2019-04-28T12:54:03.253Z,103.1
2019-04-28T12:55:03.290Z,103.8
2019-04-28T12:56:03.684Z,103.3
2019-04-28T12:57:03.359Z,101.7
2019-04-28T12:58:03.144Z,103.1
2019-04-28T12:59:03.364Z,102.6
2019-04-28T13:00:03.024Z,102.6
2019-04-28T13:01:03.091Z,101.9
2019-04-28T13:02:04.112Z,102.4
2019-04-28T13:03:03.268Z,102.2
2019-04-28T13:04:03.241Z,103.1
2019-04-28T13:05:03.390Z,103.3
2019-04-28T13:06:06.346Z,102.9
2019-04-28T13:07:03.368Z,103.6
2019-04-28T13:08:02.850Z,104.3
2019-04-28T13:09:02.887Z,104.3
2019-04-28T13:10:03.170Z,104.7
2019-04-28T13:11:03.603Z,104.5
2019-04-28T13:12:04.310Z,104.7
2019-04-28T13:13:03.553Z,105
2019-04-28T13:14:03.601Z,102.9
2019-04-28T13:15:03.382Z,101.5
2019-04-28T13:16:03.782Z,101.5
2019-04-28T13:17:03.348Z,102.2
2019-04-28T13:18:03.724Z,101.9
2019-04-28T13:19:03.453Z,101.9
2019-04-28T13:20:03.609Z,101.7
2019-04-28T13:21:03.624Z,102.2
2019-04-28T13:22:05.955Z,101.5
2019-04-28T13:23:03.271Z,102.4
2019-04-28T13:24:03.217Z,103.8